sensor_id;sensor_type;location;lat;lon;timestamp;pressure;altitude;pressure_sealevel;temperature;humidity
61026;BME280;46911;32.650;-16.902;2022-08-26T00:01:00;101856.22;;;20.53;68.82
61026;BME280;46911;32.650;-16.902;2022-08-26T00:03:01;101855.38;;;20.52;68.83
61026;BME280;46911;32.650;-16.902;2022-08-26T00:05:02;101849.34;;;20.49;69.12
61026;BME280;46911;32.650;-16.902;2022-08-26T00:07:03;101855.78;;;20.48;69.06
61026;BME280;46911;32.650;-16.902;2022-08-26T00:09:04;101850.19;;;20.49;68.99
61026;BME280;46911;32.650;-16.902;2022-08-26T00:11:05;101862.75;;;20.50;68.76
61026;BME280;46911;32.650;-16.902;2022-08-26T00:13:11;101853.78;;;20.50;69.15
61026;BME280;46911;32.650;-16.902;2022-08-26T00:15:13;101854.03;;;20.47;69.21
61026;BME280;46911;32.650;-16.902;2022-08-26T00:17:14;101855.63;;;20.49;69.01
61026;BME280;46911;32.650;-16.902;2022-08-26T00:19:15;101853.22;;;20.46;69.14
61026;BME280;46911;32.650;-16.902;2022-08-26T00:21:17;101852.38;;;20.46;69.31
61026;BME280;46911;32.650;-16.902;2022-08-26T00:23:22;101858.47;;;20.48;69.22
61026;BME280;46911;32.650;-16.902;2022-08-26T00:25:23;101849.94;;;20.52;69.20
61026;BME280;46911;32.650;-16.902;2022-08-26T00:27:26;101854.19;;;20.55;69.01
61026;BME280;46911;32.650;-16.902;2022-08-26T00:29:33;101857.47;;;20.58;68.75
61026;BME280;46911;32.650;-16.902;2022-08-26T00:31:36;101863.63;;;20.61;68.80
61026;BME280;46911;32.650;-16.902;2022-08-26T00:33:37;101861.75;;;20.61;68.68
61026;BME280;46911;32.650;-16.902;2022-08-26T00:35:38;101862.50;;;20.63;68.59
61026;BME280;46911;32.650;-16.902;2022-08-26T00:37:39;101862.59;;;20.62;68.50
61026;BME280;46911;32.650;-16.902;2022-08-26T00:39:40;101854.63;;;20.60;68.47
61026;BME280;46911;32.650;-16.902;2022-08-26T00:41:41;101858.47;;;20.57;68.85
61026;BME280;46911;32.650;-16.902;2022-08-26T00:43:42;101856.22;;;20.53;69.05
61026;BME280;46911;32.650;-16.902;2022-08-26T00:45:58;101854.63;;;20.50;69.26
61026;BME280;46911;32.650;-16.902;2022-08-26T00:48:01;101856.50;;;20.50;69.44
61026;BME280;46911;32.650;-16.902;2022-08-26T00:50:09;101850.34;;;20.48;69.45
61026;BME280;46911;32.650;-16.902;2022-08-26T00:52:14;101850.50;;;20.46;69.72
61026;BME280;46911;32.650;-16.902;2022-08-26T00:54:23;101851.47;;;20.45;69.88
61026;BME280;46911;32.650;-16.902;2022-08-26T00:58:27;101847.06;;;20.44;70.05
61026;BME280;46911;32.650;-16.902;2022-08-26T01:00:29;101841.94;;;20.41;70.23
61026;BME280;46911;32.650;-16.902;2022-08-26T01:02:34;101836.81;;;20.38;70.34
61026;BME280;46911;32.650;-16.902;2022-08-26T01:04:38;101843.06;;;20.38;70.38
61026;BME280;46911;32.650;-16.902;2022-08-26T01:06:39;101837.78;;;20.37;70.55
61026;BME280;46911;32.650;-16.902;2022-08-26T01:08:40;101835.38;;;20.34;70.43
61026;BME280;46911;32.650;-16.902;2022-08-26T01:10:43;101821.53;;;20.27;70.31
61026;BME280;46911;32.650;-16.902;2022-08-26T01:12:45;101831.78;;;20.23;70.91
61026;BME280;46911;32.650;-16.902;2022-08-26T01:14:48;101831.94;;;20.22;70.74
61026;BME280;46911;32.650;-16.902;2022-08-26T01:16:49;101817.66;;;20.20;71.01
61026;BME280;46911;32.650;-16.902;2022-08-26T01:18:50;101836.78;;;20.18;71.05
61026;BME280;46911;32.650;-16.902;2022-08-26T01:20:55;101831.63;;;20.15;70.91
61026;BME280;46911;32.650;-16.902;2022-08-26T01:22:58;101828.34;;;20.12;70.92
61026;BME280;46911;32.650;-16.902;2022-08-26T01:24:59;101822.09;;;20.11;71.28
61026;BME280;46911;32.650;-16.902;2022-08-26T01:27:05;101819.53;;;20.10;71.11
61026;BME280;46911;32.650;-16.902;2022-08-26T01:29:10;101827.22;;;20.04;71.12
61026;BME280;46911;32.650;-16.902;2022-08-26T01:31:15;101823.63;;;20.04;71.38
61026;BME280;46911;32.650;-16.902;2022-08-26T01:33:20;101817.50;;;20.02;71.18
61026;BME280;46911;32.650;-16.902;2022-08-26T01:35:22;101807.66;;;20.01;71.35
61026;BME280;46911;32.650;-16.902;2022-08-26T01:37:25;101809.63;;;19.99;71.50
61026;BME280;46911;32.650;-16.902;2022-08-26T01:39:30;101810.78;;;19.96;71.48
61026;BME280;46911;32.650;-16.902;2022-08-26T01:41:31;101806.22;;;19.97;71.46
61026;BME280;46911;32.650;-16.902;2022-08-26T01:43:32;101801.09;;;19.94;71.41
61026;BME280;46911;32.650;-16.902;2022-08-26T01:45:35;101793.97;;;19.93;71.33
61026;BME280;46911;32.650;-16.902;2022-08-26T01:47:42;101793.09;;;19.92;71.17
61026;BME280;46911;32.650;-16.902;2022-08-26T01:49:47;101800.38;;;19.92;71.75
61026;BME280;46911;32.650;-16.902;2022-08-26T01:51:49;101789.69;;;19.90;71.60
61026;BME280;46911;32.650;-16.902;2022-08-26T01:53:51;101787.13;;;19.88;71.59
61026;BME280;46911;32.650;-16.902;2022-08-26T01:55:59;101788.94;;;19.88;71.93
61026;BME280;46911;32.650;-16.902;2022-08-26T01:58:05;101783.69;;;19.86;72.04
61026;BME280;46911;32.650;-16.902;2022-08-26T02:00:07;101771.88;;;19.87;71.74
61026;BME280;46911;32.650;-16.902;2022-08-26T02:02:15;101780.28;;;19.84;72.10
61026;BME280;46911;32.650;-16.902;2022-08-26T02:06:57;101766.84;;;19.83;72.28
61026;BME280;46911;32.650;-16.902;2022-08-26T02:08:59;101766.00;;;19.82;72.42
61026;BME280;46911;32.650;-16.902;2022-08-26T02:11:03;101756.75;;;19.85;72.29
61026;BME280;46911;32.650;-16.902;2022-08-26T02:13:07;101763.16;;;19.84;72.41
61026;BME280;46911;32.650;-16.902;2022-08-26T02:15:08;101762.03;;;19.86;72.31
61026;BME280;46911;32.650;-16.902;2022-08-26T02:17:13;101759.16;;;19.88;72.73
61026;BME280;46911;32.650;-16.902;2022-08-26T02:19:17;101757.47;;;19.87;72.64
61026;BME280;46911;32.650;-16.902;2022-08-26T02:21:21;101756.03;;;19.83;72.81
61026;BME280;46911;32.650;-16.902;2022-08-26T02:23:22;101748.03;;;19.81;73.02
61026;BME280;46911;32.650;-16.902;2022-08-26T02:25:25;101754.44;;;19.80;73.02
61026;BME280;46911;32.650;-16.902;2022-08-26T02:27:28;101750.03;;;19.79;72.86
61026;BME280;46911;32.650;-16.902;2022-08-26T02:29:34;101747.56;;;19.76;72.57
61026;BME280;46911;32.650;-16.902;2022-08-26T02:31:36;101753.84;;;19.77;72.40
61026;BME280;46911;32.650;-16.902;2022-08-26T02:33:39;101760.41;;;19.74;72.65
61026;BME280;46911;32.650;-16.902;2022-08-26T02:35:40;101753.28;;;19.73;72.69
61026;BME280;46911;32.650;-16.902;2022-08-26T02:37:45;101755.13;;;19.72;72.29
61026;BME280;46911;32.650;-16.902;2022-08-26T02:39:46;101757.97;;;19.71;72.25
61026;BME280;46911;32.650;-16.902;2022-08-26T02:41:47;101752.69;;;19.69;72.37
61026;BME280;46911;32.650;-16.902;2022-08-26T02:43:47;101758.09;;;19.69;72.11
61026;BME280;46911;32.650;-16.902;2022-08-26T02:45:50;101749.97;;;19.69;72.22
61026;BME280;46911;32.650;-16.902;2022-08-26T02:47:51;101745.59;;;19.68;72.07
61026;BME280;46911;32.650;-16.902;2022-08-26T02:49:54;101752.97;;;19.66;72.07
61026;BME280;46911;32.650;-16.902;2022-08-26T02:51:57;101758.53;;;19.65;71.96
61026;BME280;46911;32.650;-16.902;2022-08-26T02:54:02;101749.28;;;19.67;71.93
61026;BME280;46911;32.650;-16.902;2022-08-26T02:56:06;101760.25;;;19.66;71.74
61026;BME280;46911;32.650;-16.902;2022-08-26T02:58:09;101751.25;;;19.65;71.73
61026;BME280;46911;32.650;-16.902;2022-08-26T03:00:11;101748.69;;;19.64;71.62
61026;BME280;46911;32.650;-16.902;2022-08-26T03:02:13;101746.84;;;19.64;71.25
61026;BME280;46911;32.650;-16.902;2022-08-26T03:04:17;101745.84;;;19.65;71.37
61026;BME280;46911;32.650;-16.902;2022-08-26T03:06:20;101746.84;;;19.64;71.35
61026;BME280;46911;32.650;-16.902;2022-08-26T03:08:21;101748.97;;;19.61;71.21
61026;BME280;46911;32.650;-16.902;2022-08-26T03:10:24;101748.25;;;19.58;71.25
61026;BME280;46911;32.650;-16.902;2022-08-26T03:12:27;101743.25;;;19.54;71.09
61026;BME280;46911;32.650;-16.902;2022-08-26T03:14:31;101744.09;;;19.54;71.24
61026;BME280;46911;32.650;-16.902;2022-08-26T03:16:35;101738.13;;;19.51;71.11
61026;BME280;46911;32.650;-16.902;2022-08-26T03:18:36;101738.00;;;19.52;70.70
61026;BME280;46911;32.650;-16.902;2022-08-26T03:20:39;101737.13;;;19.52;70.04
61026;BME280;46911;32.650;-16.902;2022-08-26T03:22:42;101731.84;;;19.50;70.16
61026;BME280;46911;32.650;-16.902;2022-08-26T03:24:43;101733.41;;;19.53;69.86
61026;BME280;46911;32.650;-16.902;2022-08-26T03:26:44;101738.25;;;19.49;69.40
61026;BME280;46911;32.650;-16.902;2022-08-26T03:28:47;101728.56;;;19.47;69.59
61026;BME280;46911;32.650;-16.902;2022-08-26T03:31:06;101730.41;;;19.46;69.33
61026;BME280;46911;32.650;-16.902;2022-08-26T03:33:08;101734.09;;;19.45;68.83
61026;BME280;46911;32.650;-16.902;2022-08-26T03:35:11;101733.25;;;19.45;69.13
61026;BME280;46911;32.650;-16.902;2022-08-26T03:37:12;101723.56;;;19.42;68.79
61026;BME280;46911;32.650;-16.902;2022-08-26T03:39:14;101727.13;;;19.43;68.51
61026;BME280;46911;32.650;-16.902;2022-08-26T03:41:18;101725.44;;;19.42;68.53
61026;BME280;46911;32.650;-16.902;2022-08-26T03:43:20;101723.72;;;19.40;68.37
61026;BME280;46911;32.650;-16.902;2022-08-26T03:45:23;101729.41;;;19.37;68.23
61026;BME280;46911;32.650;-16.902;2022-08-26T03:47:26;101724.97;;;19.36;68.54
61026;BME280;46911;32.650;-16.902;2022-08-26T03:49:27;101727.41;;;19.39;68.10
61026;BME280;46911;32.650;-16.902;2022-08-26T03:51:28;101715.88;;;19.37;67.89
61026;BME280;46911;32.650;-16.902;2022-08-26T03:53:29;101728.53;;;19.37;68.12
61026;BME280;46911;32.650;-16.902;2022-08-26T03:55:34;101729.41;;;19.37;67.83
61026;BME280;46911;32.650;-16.902;2022-08-26T03:57:38;101734.94;;;19.36;68.18
61026;BME280;46911;32.650;-16.902;2022-08-26T03:59:38;101732.50;;;19.33;68.07
61026;BME280;46911;32.650;-16.902;2022-08-26T04:01:39;101725.97;;;19.35;67.76
61026;BME280;46911;32.650;-16.902;2022-08-26T04:03:40;101730.41;;;19.36;67.79
61026;BME280;46911;32.650;-16.902;2022-08-26T04:06:01;101722.28;;;19.36;67.75
61026;BME280;46911;32.650;-16.902;2022-08-26T04:08:02;101719.81;;;19.33;67.72
61026;BME280;46911;32.650;-16.902;2022-08-26T04:10:05;101717.00;;;19.35;67.52
61026;BME280;46911;32.650;-16.902;2022-08-26T04:12:07;101724.97;;;19.36;67.81
61026;BME280;46911;32.650;-16.902;2022-08-26T04:14:12;101722.53;;;19.33;67.92
61026;BME280;46911;32.650;-16.902;2022-08-26T04:16:14;101726.13;;;19.34;67.86
61026;BME280;46911;32.650;-16.902;2022-08-26T04:18:15;101727.25;;;19.31;68.11
61026;BME280;46911;32.650;-16.902;2022-08-26T04:20:19;101721.09;;;19.29;68.39
61026;BME280;46911;32.650;-16.902;2022-08-26T04:22:20;101721.25;;;19.28;68.35
61026;BME280;46911;32.650;-16.902;2022-08-26T04:24:21;101720.25;;;19.29;68.47
61026;BME280;46911;32.650;-16.902;2022-08-26T04:26:23;101728.50;;;19.27;68.73
61026;BME280;46911;32.650;-16.902;2022-08-26T04:28:30;101726.06;;;19.24;68.67
61026;BME280;46911;32.650;-16.902;2022-08-26T04:30:35;101721.53;;;19.24;68.69
61026;BME280;46911;32.650;-16.902;2022-08-26T04:32:36;101719.66;;;19.25;68.72
61026;BME280;46911;32.650;-16.902;2022-08-26T04:34:39;101717.94;;;19.24;69.18
61026;BME280;46911;32.650;-16.902;2022-08-26T04:36:39;101729.63;;;19.24;69.09
61026;BME280;46911;32.650;-16.902;2022-08-26T04:38:43;101718.97;;;19.23;68.98
61026;BME280;46911;32.650;-16.902;2022-08-26T04:40:47;101716.25;;;19.23;68.79
61026;BME280;46911;32.650;-16.902;2022-08-26T04:42:50;101717.94;;;19.24;68.75
61026;BME280;46911;32.650;-16.902;2022-08-26T04:44:51;101719.94;;;19.22;68.85
61026;BME280;46911;32.650;-16.902;2022-08-26T04:46:54;101715.38;;;19.22;68.81
61026;BME280;46911;32.650;-16.902;2022-08-26T04:48:57;101712.81;;;19.21;68.49
61026;BME280;46911;32.650;-16.902;2022-08-26T04:50:58;101712.81;;;19.21;68.80
61026;BME280;46911;32.650;-16.902;2022-08-26T04:53:01;101711.09;;;19.20;68.54
61026;BME280;46911;32.650;-16.902;2022-08-26T04:55:04;101713.09;;;19.18;68.58
61026;BME280;46911;32.650;-16.902;2022-08-26T04:57:07;101712.22;;;19.17;68.47
61026;BME280;46911;32.650;-16.902;2022-08-26T04:59:09;101716.09;;;19.15;68.78
61026;BME280;46911;32.650;-16.902;2022-08-26T05:01:14;101708.97;;;19.14;68.82
61026;BME280;46911;32.650;-16.902;2022-08-26T05:03:21;101704.53;;;19.13;68.75
61026;BME280;46911;32.650;-16.902;2022-08-26T05:05:24;101724.44;;;19.12;68.81
61026;BME280;46911;32.650;-16.902;2022-08-26T05:07:28;101709.94;;;19.13;68.57
61026;BME280;46911;32.650;-16.902;2022-08-26T05:09:31;101715.63;;;19.10;68.58
61026;BME280;46911;32.650;-16.902;2022-08-26T05:11:32;101718.59;;;19.06;68.57
61026;BME280;46911;32.650;-16.902;2022-08-26T05:13:33;101715.19;;;19.04;68.68
61026;BME280;46911;32.650;-16.902;2022-08-26T05:15:37;101714.44;;;19.02;68.65
61026;BME280;46911;32.650;-16.902;2022-08-26T05:17:41;101717.28;;;19.01;68.93
61026;BME280;46911;32.650;-16.902;2022-08-26T05:19:41;101717.28;;;19.01;69.05
61026;BME280;46911;32.650;-16.902;2022-08-26T05:21:45;101720.97;;;19.00;69.19
61026;BME280;46911;32.650;-16.902;2022-08-26T05:23:46;101725.53;;;18.99;68.92
61026;BME280;46911;32.650;-16.902;2022-08-26T05:25:51;101720.88;;;19.01;69.32
61026;BME280;46911;32.650;-16.902;2022-08-26T05:27:52;101714.91;;;19.07;68.49
61026;BME280;46911;32.650;-16.902;2022-08-26T05:29:55;101717.59;;;19.07;68.19
61026;BME280;46911;32.650;-16.902;2022-08-26T05:31:56;101709.34;;;19.09;67.85
61026;BME280;46911;32.650;-16.902;2022-08-26T05:33:56;101706.50;;;19.11;67.69
61026;BME280;46911;32.650;-16.902;2022-08-26T05:36:04;101700.38;;;19.09;67.71
61026;BME280;46911;32.650;-16.902;2022-08-26T05:38:06;101696.56;;;19.11;67.55
61026;BME280;46911;32.650;-16.902;2022-08-26T05:40:07;101695.69;;;19.11;67.29
61026;BME280;46911;32.650;-16.902;2022-08-26T05:42:08;101698.38;;;19.11;67.51
61026;BME280;46911;32.650;-16.902;2022-08-26T05:44:13;101692.97;;;19.11;67.26
61026;BME280;46911;32.650;-16.902;2022-08-26T05:46:16;101693.44;;;19.16;67.08
61026;BME280;46911;32.650;-16.902;2022-08-26T05:48:19;101687.72;;;19.09;67.35
61026;BME280;46911;32.650;-16.902;2022-08-26T05:50:20;101687.16;;;19.05;67.44
61026;BME280;46911;32.650;-16.902;2022-08-26T05:52:24;101694.25;;;19.06;67.75
61026;BME280;46911;32.650;-16.902;2022-08-26T05:54:25;101690.09;;;19.02;67.86
61026;BME280;46911;32.650;-16.902;2022-08-26T05:56:29;101690.38;;;18.99;67.73
61026;BME280;46911;32.650;-16.902;2022-08-26T05:58:32;101693.94;;;19.00;67.74
61026;BME280;46911;32.650;-16.902;2022-08-26T06:00:36;101691.38;;;18.98;67.31
61026;BME280;46911;32.650;-16.902;2022-08-26T06:02:39;101686.84;;;18.99;67.57
61026;BME280;46911;32.650;-16.902;2022-08-26T06:04:40;101696.78;;;18.98;67.28
61026;BME280;46911;32.650;-16.902;2022-08-26T06:06:41;101688.66;;;18.98;67.05
61026;BME280;46911;32.650;-16.902;2022-08-26T06:08:45;101685.38;;;18.95;67.38
61026;BME280;46911;32.650;-16.902;2022-08-26T06:11:10;101696.06;;;18.96;67.09
61026;BME280;46911;32.650;-16.902;2022-08-26T06:13:12;101694.06;;;18.98;67.46
61026;BME280;46911;32.650;-16.902;2022-08-26T06:15:13;101705.03;;;18.97;67.30
61026;BME280;46911;32.650;-16.902;2022-08-26T06:17:16;101697.75;;;18.97;67.44
61026;BME280;46911;32.650;-16.902;2022-08-26T06:19:17;101705.03;;;18.97;67.31
61026;BME280;46911;32.650;-16.902;2022-08-26T06:21:28;101708.00;;;18.94;67.54
61026;BME280;46911;32.650;-16.902;2022-08-26T06:23:29;101706.44;;;18.91;67.59
61026;BME280;46911;32.650;-16.902;2022-08-26T06:25:50;101710.72;;;18.94;67.37
61026;BME280;46911;32.650;-16.902;2022-08-26T06:27:51;101703.44;;;18.94;67.85
61026;BME280;46911;32.650;-16.902;2022-08-26T06:29:52;101701.59;;;18.95;67.73
61026;BME280;46911;32.650;-16.902;2022-08-26T06:31:55;101699.91;;;18.94;67.52
61026;BME280;46911;32.650;-16.902;2022-08-26T06:33:56;101693.63;;;18.93;67.55
61026;BME280;46911;32.650;-16.902;2022-08-26T06:35:57;101699.91;;;18.94;67.41
61026;BME280;46911;32.650;-16.902;2022-08-26T06:38:00;101694.50;;;18.94;67.19
61026;BME280;46911;32.650;-16.902;2022-08-26T06:40:01;101696.19;;;18.95;66.99
61026;BME280;46911;32.650;-16.902;2022-08-26T06:42:02;101701.72;;;18.93;66.62
61026;BME280;46911;32.650;-16.902;2022-08-26T06:44:04;101691.66;;;18.95;66.49
61026;BME280;46911;32.650;-16.902;2022-08-26T06:46:09;101699.63;;;18.97;66.57
61026;BME280;46911;32.650;-16.902;2022-08-26T06:48:13;101704.19;;;18.96;66.23
61026;BME280;46911;32.650;-16.902;2022-08-26T06:50:16;101702.31;;;18.97;66.54
61026;BME280;46911;32.650;-16.902;2022-08-26T06:52:19;101702.19;;;18.98;66.56
61026;BME280;46911;32.650;-16.902;2022-08-26T06:54:20;101699.22;;;19.01;66.59
61026;BME280;46911;32.650;-16.902;2022-08-26T06:56:22;101697.38;;;19.02;66.89
61026;BME280;46911;32.650;-16.902;2022-08-26T06:58:23;101696.84;;;19.08;66.64
61026;BME280;46911;32.650;-16.902;2022-08-26T07:00:24;101692.28;;;19.09;66.99
61026;BME280;46911;32.650;-16.902;2022-08-26T07:02:25;101702.81;;;19.12;66.52
61026;BME280;46911;32.650;-16.902;2022-08-26T07:04:25;101698.84;;;19.16;66.08
61026;BME280;46911;32.650;-16.902;2022-08-26T07:06:27;101691.31;;;19.19;65.61
61026;BME280;46911;32.650;-16.902;2022-08-26T07:08:28;101695.75;;;19.20;65.57
61026;BME280;46911;32.650;-16.902;2022-08-26T07:10:31;101701.72;;;19.24;65.44
61026;BME280;46911;32.650;-16.902;2022-08-26T07:12:34;101707.56;;;19.29;65.09
61026;BME280;46911;32.650;-16.902;2022-08-26T07:14:35;101700.19;;;19.31;64.95
61026;BME280;46911;32.650;-16.902;2022-08-26T07:16:38;101705.75;;;19.39;64.79
61026;BME280;46911;32.650;-16.902;2022-08-26T07:18:41;101702.91;;;19.41;64.50
61026;BME280;46911;32.650;-16.902;2022-08-26T07:20:45;101707.34;;;19.42;64.31
61026;BME280;46911;32.650;-16.902;2022-08-26T07:22:45;101706.22;;;19.45;64.08
61026;BME280;46911;32.650;-16.902;2022-08-26T07:24:46;101701.50;;;19.47;64.12
61026;BME280;46911;32.650;-16.902;2022-08-26T07:26:50;101707.50;;;19.50;63.72
61026;BME280;46911;32.650;-16.902;2022-08-26T07:28:51;101697.94;;;19.56;63.59
61026;BME280;46911;32.650;-16.902;2022-08-26T07:30:52;101708.22;;;19.62;63.51
61026;BME280;46911;32.650;-16.902;2022-08-26T07:32:54;101698.53;;;19.69;63.11
61026;BME280;46911;32.650;-16.902;2022-08-26T07:34:55;101704.84;;;19.80;63.15
61026;BME280;46911;32.650;-16.902;2022-08-26T07:36:58;101705.16;;;19.86;62.69
61026;BME280;46911;32.650;-16.902;2022-08-26T07:38:59;101704.75;;;19.91;62.85
61026;BME280;46911;32.650;-16.902;2022-08-26T07:41:00;101711.31;;;19.98;62.64
61026;BME280;46911;32.650;-16.902;2022-08-26T07:43:01;101708.03;;;20.04;62.59
61026;BME280;46911;32.650;-16.902;2022-08-26T07:45:02;101709.31;;;20.10;62.54
61026;BME280;46911;32.650;-16.902;2022-08-26T07:47:03;101711.47;;;20.16;62.54
61026;BME280;46911;32.650;-16.902;2022-08-26T07:49:04;101718.16;;;20.22;62.71
61026;BME280;46911;32.650;-16.902;2022-08-26T07:51:05;101720.16;;;20.30;62.62
61026;BME280;46911;32.650;-16.902;2022-08-26T07:53:06;101724.97;;;20.36;62.50
61026;BME280;46911;32.650;-16.902;2022-08-26T07:55:09;101721.56;;;20.44;62.25
61026;BME280;46911;32.650;-16.902;2022-08-26T07:57:12;101721.81;;;20.50;62.05
61026;BME280;46911;32.650;-16.902;2022-08-26T07:59:17;101732.22;;;20.55;62.04
61026;BME280;46911;32.650;-16.902;2022-08-26T08:01:19;101737.78;;;20.63;61.67
61026;BME280;46911;32.650;-16.902;2022-08-26T08:03:22;101737.22;;;20.69;61.81
61026;BME280;46911;32.650;-16.902;2022-08-26T08:05:25;101739.34;;;20.76;61.54
61026;BME280;46911;32.650;-16.902;2022-08-26T08:07:26;101734.19;;;20.82;61.34
61026;BME280;46911;32.650;-16.902;2022-08-26T08:09:27;101734.47;;;20.89;61.36
61026;BME280;46911;32.650;-16.902;2022-08-26T08:11:28;101733.03;;;20.95;61.18
61026;BME280;46911;32.650;-16.902;2022-08-26T08:13:30;101734.84;;;21.04;61.17
61026;BME280;46911;32.650;-16.902;2022-08-26T08:15:31;101732.38;;;21.11;61.39
61026;BME280;46911;32.650;-16.902;2022-08-26T08:17:32;101727.38;;;21.16;61.26
61026;BME280;46911;32.650;-16.902;2022-08-26T08:19:36;101738.19;;;21.26;60.83
61026;BME280;46911;32.650;-16.902;2022-08-26T08:21:36;101740.16;;;21.33;61.17
61026;BME280;46911;32.650;-16.902;2022-08-26T08:23:40;101737.00;;;21.38;61.16
61026;BME280;46911;32.650;-16.902;2022-08-26T08:25:40;101731.66;;;21.46;60.75
61026;BME280;46911;32.650;-16.902;2022-08-26T08:27:44;101733.75;;;21.52;61.01
61026;BME280;46911;32.650;-16.902;2022-08-26T08:29:47;101738.47;;;21.60;60.62
61026;BME280;46911;32.650;-16.902;2022-08-26T08:31:49;101733.13;;;21.68;60.48
61026;BME280;46911;32.650;-16.902;2022-08-26T08:33:51;101736.63;;;21.79;60.38
61026;BME280;46911;32.650;-16.902;2022-08-26T08:35:52;101728.41;;;21.88;60.12
61026;BME280;46911;32.650;-16.902;2022-08-26T08:37:54;101734.63;;;21.99;59.83
61026;BME280;46911;32.650;-16.902;2022-08-26T08:39:58;101735.41;;;22.09;59.92
61026;BME280;46911;32.650;-16.902;2022-08-26T08:44:03;101734.06;;;22.31;59.77
61026;BME280;46911;32.650;-16.902;2022-08-26T08:46:11;101737.44;;;22.43;60.00
61026;BME280;46911;32.650;-16.902;2022-08-26T08:51:13;101744.56;;;22.62;62.14
61026;BME280;46911;32.650;-16.902;2022-08-26T08:53:00;101747.19;;;22.54;63.07
61026;BME280;46911;32.650;-16.902;2022-08-26T08:55:05;101741.69;;;22.64;62.91
61026;BME280;46911;32.650;-16.902;2022-08-26T08:57:11;101741.41;;;22.75;62.59
61026;BME280;46911;32.650;-16.902;2022-08-26T08:59:18;101739.56;;;22.76;62.85
61026;BME280;46911;32.650;-16.902;2022-08-26T09:05:50;101745.00;;;23.36;62.91
61026;BME280;46911;32.650;-16.902;2022-08-26T09:07:56;101752.66;;;23.84;62.08
61026;BME280;46911;32.650;-16.902;2022-08-26T09:10:07;101746.75;;;24.46;60.29
61026;BME280;46911;32.650;-16.902;2022-08-26T09:12:25;101740.31;;;24.72;58.15
61026;BME280;46911;32.650;-16.902;2022-08-26T09:14:26;101746.56;;;25.45;56.56
61026;BME280;46911;32.650;-16.902;2022-08-26T09:16:39;101741.00;;;25.93;55.43
61026;BME280;46911;32.650;-16.902;2022-08-26T09:20:56;101742.19;;;26.45;53.17
61026;BME280;46911;32.650;-16.902;2022-08-26T09:23:00;101738.78;;;26.43;52.79
61026;BME280;46911;32.650;-16.902;2022-08-26T09:25:02;101746.34;;;26.56;52.97
61026;BME280;46911;32.650;-16.902;2022-08-26T09:27:06;101743.41;;;26.43;52.95
61026;BME280;46911;32.650;-16.902;2022-08-26T09:29:13;101739.75;;;27.03;51.88
61026;BME280;46911;32.650;-16.902;2022-08-26T09:31:19;101747.53;;;27.36;51.17
61026;BME280;46911;32.650;-16.902;2022-08-26T09:33:26;101751.75;;;27.47;50.80
61026;BME280;46911;32.650;-16.902;2022-08-26T09:37:46;101747.34;;;27.68;49.86
61026;BME280;46911;32.650;-16.902;2022-08-26T09:39:48;101751.34;;;27.50;49.70
61026;BME280;46911;32.650;-16.902;2022-08-26T09:42:03;101751.16;;;27.22;50.96
61026;BME280;46911;32.650;-16.902;2022-08-26T09:44:12;101743.69;;;27.16;51.03
61026;BME280;46911;32.650;-16.902;2022-08-26T09:46:23;101747.09;;;26.88;51.88
61026;BME280;46911;32.650;-16.902;2022-08-26T09:48:30;101738.44;;;27.66;50.36
61026;BME280;46911;32.650;-16.902;2022-08-26T09:50:38;101747.81;;;27.56;49.95
61026;BME280;46911;32.650;-16.902;2022-08-26T09:52:41;101742.84;;;27.82;50.09
61026;BME280;46911;32.650;-16.902;2022-08-26T09:54:44;101754.00;;;27.29;50.44
61026;BME280;46911;32.650;-16.902;2022-08-26T09:59:19;101758.66;;;26.37;53.04
61026;BME280;46911;32.650;-16.902;2022-08-26T10:01:31;101762.03;;;26.62;53.19
61026;BME280;46911;32.650;-16.902;2022-08-26T10:03:36;101752.47;;;26.20;54.75
61026;BME280;46911;32.650;-16.902;2022-08-26T10:07:46;101765.53;;;27.39;51.65
61026;BME280;46911;32.650;-16.902;2022-08-26T10:09:48;101768.94;;;27.78;50.74
61026;BME280;46911;32.650;-16.902;2022-08-26T10:13:50;101753.03;;;29.45;47.02
61026;BME280;46911;32.650;-16.902;2022-08-26T10:18:19;101752.22;;;30.26;45.64
61026;BME280;46911;32.650;-16.902;2022-08-26T10:20:27;101757.66;;;31.13;42.56
61026;BME280;46911;32.650;-16.902;2022-08-26T10:24:36;101751.63;;;31.50;41.80
61026;BME280;46911;32.650;-16.902;2022-08-26T10:30:50;101746.47;;;30.28;44.60
61026;BME280;46911;32.650;-16.902;2022-08-26T10:32:54;101739.56;;;29.63;45.75
61026;BME280;46911;32.650;-16.902;2022-08-26T10:34:57;101747.22;;;29.68;44.89
61026;BME280;46911;32.650;-16.902;2022-08-26T10:39:34;101744.38;;;30.30;43.57
61026;BME280;46911;32.650;-16.902;2022-08-26T10:41:36;101745.88;;;30.66;43.11
61026;BME280;46911;32.650;-16.902;2022-08-26T10:43:55;101740.09;;;31.08;42.13
61026;BME280;46911;32.650;-16.902;2022-08-26T10:46:18;101740.25;;;31.26;41.44
61026;BME280;46911;32.650;-16.902;2022-08-26T10:50:31;101744.34;;;29.96;43.96
61026;BME280;46911;32.650;-16.902;2022-08-26T10:54:42;101740.75;;;29.41;45.77
61026;BME280;46911;32.650;-16.902;2022-08-26T10:56:57;101741.38;;;29.36;46.05
61026;BME280;46911;32.650;-16.902;2022-08-26T11:01:07;101747.72;;;30.05;44.66
61026;BME280;46911;32.650;-16.902;2022-08-26T11:03:52;101750.41;;;29.78;44.54
61026;BME280;46911;32.650;-16.902;2022-08-26T11:14:37;101739.72;;;29.06;46.59
61026;BME280;46911;32.650;-16.902;2022-08-26T11:16:39;101743.06;;;29.02;46.10
61026;BME280;46911;32.650;-16.902;2022-08-26T11:18:41;101744.13;;;28.44;47.29
61026;BME280;46911;32.650;-16.902;2022-08-26T11:20:44;101745.53;;;28.12;48.27